sensor_id;sensor_type;location;lat;lon;timestamp;temperature;humidity
38973;DHT22;25333;50.762;4.470;2024-01-30T06:56:32;10.20;99.90
38973;DHT22;25333;50.762;4.470;2024-01-30T13:59:51;10.70;99.90
38973;DHT22;25333;50.762;4.470;2024-01-30T14:02:17;10.60;99.90
38973;DHT22;25333;50.762;4.470;2024-01-30T14:04:44;10.60;99.90
38973;DHT22;25333;50.762;4.470;2024-01-30T14:07:10;10.60;99.90
38973;DHT22;25333;50.762;4.470;2024-01-30T14:09:41;10.60;99.90
38973;DHT22;25333;50.762;4.470;2024-01-30T14:12:07;10.60;99.90
38973;DHT22;25333;50.762;4.470;2024-01-30T14:14:33;10.60;99.90
38973;DHT22;25333;50.762;4.470;2024-01-30T14:16:59;10.60;99.90
38973;DHT22;25333;50.762;4.470;2024-01-30T14:19:25;10.60;99.90
38973;DHT22;25333;50.762;4.470;2024-01-30T14:21:51;10.60;99.90
38973;DHT22;25333;50.762;4.470;2024-01-30T14:24:19;10.60;99.90
38973;DHT22;25333;50.762;4.470;2024-01-30T14:26:44;10.60;99.90
38973;DHT22;25333;50.762;4.470;2024-01-30T14:29:10;10.50;99.90
38973;DHT22;25333;50.762;4.470;2024-01-30T14:31:36;10.60;99.90
38973;DHT22;25333;50.762;4.470;2024-01-30T14:34:02;10.50;99.90
38973;DHT22;25333;50.762;4.470;2024-01-30T14:36:28;10.40;99.90
38973;DHT22;25333;50.762;4.470;2024-01-30T14:38:54;10.50;99.90
38973;DHT22;25333;50.762;4.470;2024-01-30T14:41:20;10.40;99.90
38973;DHT22;25333;50.762;4.470;2024-01-30T14:43:46;10.40;99.90
38973;DHT22;25333;50.762;4.470;2024-01-30T14:46:12;10.40;99.90
38973;DHT22;25333;50.762;4.470;2024-01-30T14:48:40;10.40;99.90
38973;DHT22;25333;50.762;4.470;2024-01-30T14:51:05;10.30;99.90
38973;DHT22;25333;50.762;4.470;2024-01-30T14:53:31;10.30;99.90
38973;DHT22;25333;50.762;4.470;2024-01-30T14:55:57;10.30;99.90
38973;DHT22;25333;50.762;4.470;2024-01-30T14:58:23;10.20;99.90
38973;DHT22;25333;50.762;4.470;2024-01-30T15:00:51;10.20;99.90
38973;DHT22;25333;50.762;4.470;2024-01-30T15:03:22;10.20;99.90
38973;DHT22;25333;50.762;4.470;2024-01-30T15:05:48;10.10;99.90
38973;DHT22;25333;50.762;4.470;2024-01-30T15:08:13;10.10;99.90
38973;DHT22;25333;50.762;4.470;2024-01-30T15:10:44;10.10;99.90
38973;DHT22;25333;50.762;4.470;2024-01-30T15:13:10;10.00;99.90
38973;DHT22;25333;50.762;4.470;2024-01-30T15:15:37;10.00;99.90
38973;DHT22;25333;50.762;4.470;2024-01-30T15:18:06;10.00;99.90
38973;DHT22;25333;50.762;4.470;2024-01-30T15:20:35;10.00;99.90
38973;DHT22;25333;50.762;4.470;2024-01-30T15:23:03;10.00;99.90
38973;DHT22;25333;50.762;4.470;2024-01-30T15:25:39;9.90;99.90
38973;DHT22;25333;50.762;4.470;2024-01-30T15:28:05;9.90;99.90
38973;DHT22;25333;50.762;4.470;2024-01-30T15:30:36;9.80;99.90
38973;DHT22;25333;50.762;4.470;2024-01-30T15:33:02;9.80;99.90
38973;DHT22;25333;50.762;4.470;2024-01-30T15:35:30;9.80;99.90
38973;DHT22;25333;50.762;4.470;2024-01-30T15:37:56;9.70;99.90
38973;DHT22;25333;50.762;4.470;2024-01-30T15:40:22;9.70;99.90
38973;DHT22;25333;50.762;4.470;2024-01-30T15:43:00;9.80;99.90
38973;DHT22;25333;50.762;4.470;2024-01-30T15:49:32;9.80;99.90
38973;DHT22;25333;50.762;4.470;2024-01-30T15:55:50;9.90;99.90
38973;DHT22;25333;50.762;4.470;2024-01-30T15:58:16;9.80;99.90
38973;DHT22;25333;50.762;4.470;2024-01-30T16:00:46;9.80;99.90
38973;DHT22;25333;50.762;4.470;2024-01-30T16:03:15;9.60;99.90
38973;DHT22;25333;50.762;4.470;2024-01-30T16:09:31;9.60;99.90
38973;DHT22;25333;50.762;4.470;2024-01-30T16:12:08;9.70;99.90
38973;DHT22;25333;50.762;4.470;2024-01-30T16:14:37;9.60;99.90
38973;DHT22;25333;50.762;4.470;2024-01-30T16:17:05;9.60;99.90
38973;DHT22;25333;50.762;4.470;2024-01-30T16:19:34;9.50;99.90
38973;DHT22;25333;50.762;4.470;2024-01-30T16:22:02;9.60;99.90
38973;DHT22;25333;50.762;4.470;2024-01-30T16:24:30;9.50;99.90
38973;DHT22;25333;50.762;4.470;2024-01-30T16:26:55;9.40;99.90
38973;DHT22;25333;50.762;4.470;2024-01-30T16:29:22;9.40;99.90
38973;DHT22;25333;50.762;4.470;2024-01-30T16:31:50;9.40;99.90
38973;DHT22;25333;50.762;4.470;2024-01-30T16:34:18;9.40;99.90
38973;DHT22;25333;50.762;4.470;2024-01-30T16:36:49;9.30;99.90
38973;DHT22;25333;50.762;4.470;2024-01-30T16:39:15;9.40;99.90
38973;DHT22;25333;50.762;4.470;2024-01-30T16:41:41;9.30;99.90
38973;DHT22;25333;50.762;4.470;2024-01-30T16:44:09;9.30;99.90
38973;DHT22;25333;50.762;4.470;2024-01-30T16:46:37;9.30;99.90
38973;DHT22;25333;50.762;4.470;2024-01-30T16:49:05;9.30;99.90
38973;DHT22;25333;50.762;4.470;2024-01-30T16:51:31;9.20;99.90
38973;DHT22;25333;50.762;4.470;2024-01-30T16:53:58;9.20;99.90
38973;DHT22;25333;50.762;4.470;2024-01-30T16:56:25;9.20;99.90
38973;DHT22;25333;50.762;4.470;2024-01-30T16:58:51;9.30;99.90
38973;DHT22;25333;50.762;4.470;2024-01-30T17:01:17;9.30;99.90
38973;DHT22;25333;50.762;4.470;2024-01-30T17:03:43;9.30;99.90
38973;DHT22;25333;50.762;4.470;2024-01-30T17:06:12;9.20;99.90
38973;DHT22;25333;50.762;4.470;2024-01-30T17:08:38;9.30;99.90
38973;DHT22;25333;50.762;4.470;2024-01-30T17:11:06;9.30;99.90
38973;DHT22;25333;50.762;4.470;2024-01-30T17:13:32;9.30;99.90
38973;DHT22;25333;50.762;4.470;2024-01-30T17:15:58;9.30;99.90
38973;DHT22;25333;50.762;4.470;2024-01-30T17:18:23;9.30;99.90
38973;DHT22;25333;50.762;4.470;2024-01-30T17:20:52;9.30;99.90
38973;DHT22;25333;50.762;4.470;2024-01-30T17:23:20;9.20;99.90
38973;DHT22;25333;50.762;4.470;2024-01-30T17:25:48;9.20;99.90
38973;DHT22;25333;50.762;4.470;2024-01-30T17:28:15;9.20;99.90
38973;DHT22;25333;50.762;4.470;2024-01-30T17:30:41;9.20;99.90
38973;DHT22;25333;50.762;4.470;2024-01-30T17:33:06;9.20;99.90
38973;DHT22;25333;50.762;4.470;2024-01-30T17:35:32;9.00;99.90
38973;DHT22;25333;50.762;4.470;2024-01-30T17:37:58;9.00;99.90
38973;DHT22;25333;50.762;4.470;2024-01-30T17:40:29;8.90;99.90
38973;DHT22;25333;50.762;4.470;2024-01-30T17:42:55;8.90;99.90
38973;DHT22;25333;50.762;4.470;2024-01-30T17:48:39;8.80;99.90
38973;DHT22;25333;50.762;4.470;2024-01-30T17:51:10;8.70;99.90
38973;DHT22;25333;50.762;4.470;2024-01-30T17:53:35;8.70;99.90
38973;DHT22;25333;50.762;4.470;2024-01-30T17:56:46;8.70;99.90
38973;DHT22;25333;50.762;4.470;2024-01-30T17:59:14;8.70;99.90
38973;DHT22;25333;50.762;4.470;2024-01-30T18:01:45;8.70;99.90
38973;DHT22;25333;50.762;4.470;2024-01-30T18:04:14;8.70;99.90
38973;DHT22;25333;50.762;4.470;2024-01-30T18:07:00;8.70;99.90
38973;DHT22;25333;50.762;4.470;2024-01-30T18:09:27;8.70;99.90
38973;DHT22;25333;50.762;4.470;2024-01-30T18:11:52;8.70;99.90
38973;DHT22;25333;50.762;4.470;2024-01-30T18:14:21;8.70;99.90
38973;DHT22;25333;50.762;4.470;2024-01-30T18:16:56;8.70;99.90
38973;DHT22;25333;50.762;4.470;2024-01-30T18:19:24;8.70;99.90
38973;DHT22;25333;50.762;4.470;2024-01-30T18:21:50;8.80;99.90
38973;DHT22;25333;50.762;4.470;2024-01-30T18:24:16;8.80;99.90
38973;DHT22;25333;50.762;4.470;2024-01-30T18:26:44;8.80;99.90
38973;DHT22;25333;50.762;4.470;2024-01-30T18:29:10;8.80;99.90
38973;DHT22;25333;50.762;4.470;2024-01-30T18:31:35;8.70;99.90
38973;DHT22;25333;50.762;4.470;2024-01-30T18:34:06;8.70;99.90
38973;DHT22;25333;50.762;4.470;2024-01-30T18:36:34;8.80;99.90
38973;DHT22;25333;50.762;4.470;2024-01-30T18:39:02;8.80;99.90
38973;DHT22;25333;50.762;4.470;2024-01-30T18:41:32;8.80;99.90
38973;DHT22;25333;50.762;4.470;2024-01-30T18:43:58;8.80;99.90
38973;DHT22;25333;50.762;4.470;2024-01-30T18:46:24;8.70;99.90
38973;DHT22;25333;50.762;4.470;2024-01-30T18:48:50;8.70;99.90
38973;DHT22;25333;50.762;4.470;2024-01-30T18:51:18;8.60;99.90
38973;DHT22;25333;50.762;4.470;2024-01-30T18:53:44;8.60;99.90
38973;DHT22;25333;50.762;4.470;2024-01-30T18:56:12;8.60;99.90
38973;DHT22;25333;50.762;4.470;2024-01-30T18:58:41;8.50;99.90
38973;DHT22;25333;50.762;4.470;2024-01-30T19:01:08;8.50;99.90
38973;DHT22;25333;50.762;4.470;2024-01-30T19:03:33;8.60;99.90
38973;DHT22;25333;50.762;4.470;2024-01-30T19:06:00;8.60;99.90
38973;DHT22;25333;50.762;4.470;2024-01-30T19:08:25;8.50;99.90
38973;DHT22;25333;50.762;4.470;2024-01-30T19:10:53;8.60;99.90
38973;DHT22;25333;50.762;4.470;2024-01-30T19:13:19;8.50;99.90
38973;DHT22;25333;50.762;4.470;2024-01-30T19:15:45;8.50;99.90
38973;DHT22;25333;50.762;4.470;2024-01-30T19:18:11;8.50;99.90
38973;DHT22;25333;50.762;4.470;2024-01-30T19:20:37;8.40;99.90
38973;DHT22;25333;50.762;4.470;2024-01-30T19:23:03;8.40;99.90
38973;DHT22;25333;50.762;4.470;2024-01-30T19:25:29;8.30;99.90
38973;DHT22;25333;50.762;4.470;2024-01-30T19:27:55;8.30;99.90
38973;DHT22;25333;50.762;4.470;2024-01-30T19:30:25;8.40;99.90
38973;DHT22;25333;50.762;4.470;2024-01-30T19:32:51;8.30;99.90
38973;DHT22;25333;50.762;4.470;2024-01-30T19:35:19;8.40;99.90
38973;DHT22;25333;50.762;4.470;2024-01-30T19:44:24;8.40;99.90
38973;DHT22;25333;50.762;4.470;2024-01-30T19:57:06;8.30;99.90
